createdAt,value
2023-05-24T00:01:25.694Z,99517.94
2023-05-24T00:03:53.847Z,99506.91
2023-05-24T00:06:21.320Z,99503.09
2023-05-24T00:08:48.748Z,99505.00
2023-05-24T00:11:16.424Z,99496.19
2023-05-24T00:13:43.809Z,99488.47
2023-05-24T00:16:11.630Z,99489.06
2023-05-24T00:18:41.088Z,99490.50
2023-05-24T00:21:08.598Z,99493.03
2023-05-24T00:23:37.129Z,99492.78
2023-05-24T00:26:05.345Z,99485.53
2023-05-24T00:28:32.770Z,99491.03
2023-05-24T00:31:00.224Z,99487.53
2023-05-24T00:33:29.650Z,99484.66
2023-05-24T00:35:57.117Z,99482.03
2023-05-24T00:38:27.681Z,99481.47
2023-05-24T00:40:59.799Z,99484.66
2023-05-24T00:43:27.602Z,99486.28
2023-05-24T00:46:32.146Z,99484.53
2023-05-24T00:49:00.582Z,99478.97
2023-05-24T00:51:28.372Z,99475.81
2023-05-24T00:53:56.350Z,99475.59
2023-05-24T00:56:23.791Z,99484.66
2023-05-24T00:58:54.830Z,99486.75
2023-05-24T01:01:25.869Z,99497.34
2023-05-24T01:03:54.477Z,99494.53
2023-05-24T01:06:22.247Z,99501.62
2023-05-24T01:09:28.410Z,99500.22
2023-05-24T01:12:11.752Z,99491.81
2023-05-24T01:14:48.629Z,99489.00
2023-05-24T01:17:21.404Z,99482.31
2023-05-24T01:19:54.815Z,99490.53
2023-05-24T01:23:00.817Z,99491.13
2023-05-24T01:25:41.831Z,99485.50
2023-05-24T01:28:09.593Z,99490.28
2023-05-24T01:30:36.982Z,99479.03
2023-05-24T01:33:04.503Z,99479.59
2023-05-24T01:35:39.791Z,99482.78
2023-05-24T01:38:07.412Z,99481.38
2023-05-24T01:40:35.178Z,99483.75
2023-05-24T01:43:17.782Z,99468.72
2023-05-24T01:46:11.084Z,99463.69
2023-05-24T01:48:54.801Z,99466.97
2023-05-24T01:51:23.966Z,99479.41
2023-05-24T01:53:51.439Z,99470.41
2023-05-24T01:56:19.493Z,99471.44
2023-05-24T01:58:47.414Z,99471.91
2023-05-24T02:01:14.816Z,99467.78
2023-05-24T02:03:42.550Z,99460.75
2023-05-24T02:06:10.766Z,99463.56
2023-05-24T02:08:40.448Z,99463.25
2023-05-24T02:11:08.160Z,99465.22
2023-05-24T02:13:35.594Z,99469.34
2023-05-24T02:16:05.147Z,99478.34
2023-05-24T02:18:34.750Z,99479.75
2023-05-24T02:21:02.650Z,99477.88
2023-05-24T02:23:30.044Z,99469.16
2023-05-24T02:26:00.043Z,99472.53
2023-05-24T02:28:28.340Z,99472.97
2023-05-24T02:30:55.747Z,99467.59
2023-05-24T02:33:25.651Z,99467.78
2023-05-24T02:35:53.126Z,99468.25
2023-05-24T02:38:20.531Z,99467.09
2023-05-24T02:40:48.185Z,99465.09
2023-05-24T02:43:15.634Z,99460.19
2023-05-24T02:45:43.048Z,99466.72
2023-05-24T02:48:10.798Z,99463.12
2023-05-24T02:50:38.204Z,99452.47
2023-05-24T02:53:05.625Z,99450.59
2023-05-24T02:55:33.712Z,99452.34
2023-05-24T02:58:01.244Z,99448.38
2023-05-24T03:00:30.196Z,99450.94
2023-05-24T03:03:00.887Z,99458.19
2023-05-24T03:05:28.380Z,99458.88
2023-05-24T03:07:56.728Z,99461.38
2023-05-24T03:10:24.420Z,99459.81
2023-05-24T03:12:51.848Z,99466.66
2023-05-24T03:15:19.321Z,99466.87
2023-05-24T03:17:47.323Z,99460.78
2023-05-24T03:20:16.003Z,99466.53
2023-05-24T03:22:43.676Z,99468.50
2023-05-24T03:25:11.361Z,99462.50
2023-05-24T03:27:38.949Z,99481.72
2023-05-24T03:30:07.203Z,99471.66
2023-05-24T03:32:35.866Z,99464.62
2023-05-24T03:35:03.283Z,99470.72
2023-05-24T03:37:30.726Z,99470.72
2023-05-24T03:39:58.351Z,99475.66
2023-05-24T03:42:26.552Z,99486.78
2023-05-24T03:44:54.154Z,99483.50
2023-05-24T03:47:21.818Z,99477.53
2023-05-24T03:49:49.232Z,99483.75
2023-05-24T03:52:16.681Z,99483.88
2023-05-24T03:54:45.859Z,99493.91
2023-05-24T03:57:13.339Z,99487.94
2023-05-24T03:59:41.454Z,99492.50
2023-05-24T04:02:09.255Z,99502.72
2023-05-24T04:04:40.010Z,99497.53
2023-05-24T04:07:08.024Z,99497.19
2023-05-24T04:09:35.583Z,99496.25
2023-05-24T04:12:03.573Z,99492.28
2023-05-24T04:14:31.035Z,99495.81
2023-05-24T04:16:58.763Z,99499.78
2023-05-24T04:19:26.562Z,99504.75
2023-05-24T04:21:54.099Z,99510.81
2023-05-24T04:24:22.470Z,99506.13
2023-05-24T04:26:50.374Z,99509.03
2023-05-24T04:29:18.910Z,99510.06
2023-05-24T04:31:49.045Z,99504.34
2023-05-24T04:34:16.941Z,99527.66
2023-05-24T04:36:44.393Z,99524.34
2023-05-24T04:39:11.854Z,99533.56
2023-05-24T04:41:39.505Z,99531.28
2023-05-24T04:44:07.542Z,99514.06
2023-05-24T04:46:36.252Z,99536.34
2023-05-24T04:49:05.677Z,99529.63
2023-05-24T04:51:33.211Z,99526.84
2023-05-24T04:54:01.564Z,99532.28
2023-05-24T04:56:29.229Z,99541.06
2023-05-24T04:58:56.634Z,99536.84
2023-05-24T05:01:24.016Z,99525.62
2023-05-24T05:03:51.675Z,99536.84
2023-05-24T05:06:19.133Z,99525.53
2023-05-24T05:08:47.474Z,99528.19
2023-05-24T05:11:15.230Z,99533.16
2023-05-24T05:13:42.668Z,99525.91
2023-05-24T05:16:10.065Z,99543.81
2023-05-24T05:18:37.782Z,99548.25
2023-05-24T05:21:05.180Z,99546.59
2023-05-24T05:23:32.680Z,99546.78
2023-05-24T05:26:00.375Z,99546.50
2023-05-24T05:28:27.729Z,99544.91
2023-05-24T05:30:56.828Z,99539.50
2023-05-24T05:33:24.651Z,99546.78
2023-05-24T05:35:54.769Z,99551.69
2023-05-24T05:38:22.495Z,99557.59
2023-05-24T05:40:51.177Z,99549.34
2023-05-24T05:43:18.622Z,99555.19
2023-05-24T05:45:46.213Z,99564.31
2023-05-24T05:48:13.919Z,99555.59
2023-05-24T05:50:41.614Z,99552.53
2023-05-24T05:53:09.153Z,99557.50
2023-05-24T05:55:36.843Z,99550.59
2023-05-24T05:58:04.252Z,99567.47
2023-05-24T06:00:31.677Z,99566.97
2023-05-24T06:02:59.373Z,99563.00
2023-05-24T06:05:26.910Z,99556.31
2023-05-24T06:07:57.174Z,99558.53
2023-05-24T06:10:25.041Z,99562.56
2023-05-24T06:12:52.567Z,99562.91
2023-05-24T06:15:22.840Z,99567.59
2023-05-24T06:17:51.847Z,99564.03
2023-05-24T06:20:19.573Z,99563.31
2023-05-24T06:22:49.433Z,99569.06
2023-05-24T06:25:19.698Z,99565.25
2023-05-24T06:27:47.215Z,99553.66
2023-05-24T06:30:14.733Z,99555.53
2023-05-24T06:32:42.526Z,99548.78
2023-05-24T06:35:10.202Z,99553.72
2023-05-24T06:37:38.656Z,99546.50
2023-05-24T06:40:09.002Z,99547.62
2023-05-24T06:42:37.053Z,99548.97
2023-05-24T06:45:04.765Z,99550.81
2023-05-24T06:47:32.827Z,99568.38
2023-05-24T06:50:01.090Z,99578.44
2023-05-24T06:52:28.564Z,99560.25
2023-05-24T06:54:56.478Z,99559.41
2023-05-24T06:57:24.568Z,99572.66
2023-05-24T06:59:52.059Z,99569.41
2023-05-24T07:02:24.108Z,99565.69
2023-05-24T07:04:51.920Z,99575.84
2023-05-24T07:07:20.665Z,99577.25
2023-05-24T07:09:48.336Z,99590.88
2023-05-24T07:12:15.837Z,99590.13
2023-05-24T07:14:43.516Z,99590.00
2023-05-24T07:17:11.133Z,99592.78
2023-05-24T07:19:38.661Z,99601.25
2023-05-24T07:22:06.489Z,99616.75
2023-05-24T07:24:34.065Z,99616.47
2023-05-24T07:27:01.776Z,99623.81
2023-05-24T07:29:29.641Z,99616.44
2023-05-24T07:31:58.031Z,99599.66
2023-05-24T07:34:27.693Z,99599.78
2023-05-24T07:36:55.644Z,99596.37
2023-05-24T07:39:23.283Z,99599.97
2023-05-24T07:41:51.003Z,99601.50
2023-05-24T07:44:19.323Z,99613.44
2023-05-24T07:46:46.812Z,99605.34
2023-05-24T07:49:14.235Z,99606.78
2023-05-24T07:51:41.928Z,99601.47
2023-05-24T07:54:09.311Z,99596.84
2023-05-24T07:56:37.775Z,99599.81
2023-05-24T07:59:05.484Z,99600.00
2023-05-24T08:01:34.409Z,99596.87
2023-05-24T08:04:04.084Z,99596.47
2023-05-24T08:06:32.841Z,99589.19
2023-05-24T08:09:00.368Z,99606.16
2023-05-24T08:11:28.059Z,99600.91
2023-05-24T08:13:55.466Z,99596.22
2023-05-24T08:16:22.922Z,99596.00
2023-05-24T08:18:52.472Z,99606.88
2023-05-24T08:21:21.589Z,99592.31
2023-05-24T08:23:49.006Z,99594.47
2023-05-24T08:26:19.173Z,99594.50
2023-05-24T08:28:47.262Z,99605.81
2023-05-24T08:31:14.758Z,99604.91
2023-05-24T08:33:42.990Z,99609.12
2023-05-24T08:36:10.835Z,99605.22
2023-05-24T08:38:38.300Z,99608.72
2023-05-24T08:41:07.266Z,99605.47
2023-05-24T08:43:35.435Z,99631.19
2023-05-24T08:46:03.783Z,99626.84
2023-05-24T08:48:31.733Z,99613.81
2023-05-24T08:50:59.460Z,99623.09
2023-05-24T08:53:26.966Z,99618.47
2023-05-24T08:55:55.837Z,99623.12
2023-05-24T08:58:23.400Z,99610.22
2023-05-24T09:00:51.026Z,99612.53
2023-05-24T09:03:18.876Z,99620.31
2023-05-24T09:05:46.805Z,99621.25
2023-05-24T09:08:18.344Z,99623.47
2023-05-24T09:10:54.989Z,99623.06
2023-05-24T09:13:23.670Z,99637.72
2023-05-24T09:15:51.588Z,99641.03
2023-05-24T09:18:19.120Z,99643.91
2023-05-24T09:20:46.845Z,99636.41
2023-05-24T09:23:16.118Z,99648.22
2023-05-24T09:25:44.752Z,99641.28
2023-05-24T09:28:16.490Z,99653.38
2023-05-24T09:30:44.981Z,99648.91
2023-05-24T09:33:13.418Z,99638.09
2023-05-24T09:35:44.806Z,99640.91
2023-05-24T09:38:18.948Z,99647.59
2023-05-24T09:40:46.924Z,99627.94
2023-05-24T09:43:14.683Z,99639.78
2023-05-24T09:45:43.016Z,99623.31
2023-05-24T09:48:11.585Z,99644.09
2023-05-24T09:50:39.504Z,99641.31
2023-05-24T09:53:07.598Z,99619.00
2023-05-24T09:55:38.025Z,99641.63
2023-05-24T09:58:08.491Z,99634.63
2023-05-24T10:00:40.084Z,99642.63
2023-05-24T10:03:10.835Z,99642.84
2023-05-24T10:05:41.354Z,99636.28
2023-05-24T10:08:12.031Z,99642.56
2023-05-24T10:10:39.515Z,99642.34
2023-05-24T10:13:07.651Z,99640.50
2023-05-24T10:15:35.330Z,99634.41
2023-05-24T10:18:09.809Z,99634.38
2023-05-24T10:20:41.848Z,99632.59
2023-05-24T10:23:10.234Z,99633.72
2023-05-24T10:25:39.683Z,99647.09
2023-05-24T10:28:12.835Z,99650.00
2023-05-24T10:30:55.017Z,99634.38
2023-05-24T10:33:22.945Z,99626.84
2023-05-24T10:35:50.606Z,99630.41
2023-05-24T10:38:17.983Z,99631.97
2023-05-24T10:40:45.724Z,99628.88
2023-05-24T10:43:13.382Z,99630.97
2023-05-24T10:45:41.038Z,99645.34
2023-05-24T10:48:24.911Z,99626.09
2023-05-24T10:50:52.294Z,99640.03
2023-05-24T10:53:22.479Z,99640.31
2023-05-24T10:56:00.198Z,99650.50
2023-05-24T10:58:37.406Z,99652.41
2023-05-24T11:01:04.804Z,99651.88
2023-05-24T11:03:35.718Z,99652.69
2023-05-24T11:06:03.229Z,99644.28
2023-05-24T11:08:31.996Z,99636.91
2023-05-24T11:11:25.680Z,99657.75
2023-05-24T11:13:58.656Z,99648.88
2023-05-24T11:16:43.680Z,99654.06
2023-05-24T11:19:23.051Z,99650.19
2023-05-24T11:21:52.542Z,99643.72
2023-05-24T11:24:22.005Z,99650.31
2023-05-24T11:26:50.023Z,99641.19
2023-05-24T11:29:19.138Z,99646.06
2023-05-24T11:31:53.156Z,99637.38
2023-05-24T11:34:21.214Z,99627.09
2023-05-24T11:36:48.845Z,99636.66
2023-05-24T11:39:16.662Z,99634.44
2023-05-24T11:41:44.524Z,99631.69
2023-05-24T11:44:12.398Z,99637.47
2023-05-24T11:46:39.964Z,99637.69
2023-05-24T11:49:07.695Z,99630.66
2023-05-24T11:51:35.993Z,99642.75
2023-05-24T11:54:03.419Z,99641.97
2023-05-24T11:56:33.624Z,99633.38
2023-05-24T11:59:10.220Z,99632.47
2023-05-24T12:01:38.174Z,99626.22
2023-05-24T12:04:07.461Z,99615.62
2023-05-24T12:06:39.505Z,99616.72
2023-05-24T12:09:13.207Z,99625.19
2023-05-24T12:11:48.343Z,99625.06
2023-05-24T12:14:19.685Z,99621.28
2023-05-24T12:16:47.428Z,99606.47
2023-05-24T12:19:31.502Z,99621.97
2023-05-24T12:22:05.010Z,99616.78
2023-05-24T12:24:32.717Z,99626.22
2023-05-24T12:27:06.801Z,99631.59
2023-05-24T12:29:35.506Z,99626.91
2023-05-24T12:32:03.081Z,99631.28
2023-05-24T12:34:30.609Z,99622.13
2023-05-24T12:36:58.463Z,99619.94
2023-05-24T12:39:31.879Z,99630.75
2023-05-24T12:42:01.955Z,99606.97
2023-05-24T12:44:36.852Z,99607.53
2023-05-24T12:47:06.935Z,99609.66
2023-05-24T12:49:34.660Z,99603.56
2023-05-24T12:52:02.181Z,99609.00
2023-05-24T12:54:30.022Z,99609.56
2023-05-24T12:56:59.684Z,99599.31
2023-05-24T12:59:28.319Z,99594.44
2023-05-24T13:01:56.399Z,99591.22
2023-05-24T13:04:24.502Z,99601.53
2023-05-24T13:06:51.957Z,99587.38
2023-05-24T13:09:21.725Z,99608.50
2023-05-24T13:11:49.564Z,99598.63
2023-05-24T13:14:18.201Z,99590.63
2023-05-24T13:16:46.065Z,99594.41
2023-05-24T13:19:13.668Z,99591.72
2023-05-24T13:21:41.267Z,99584.66
2023-05-24T13:24:09.236Z,99587.09
2023-05-24T13:26:38.075Z,99588.69
2023-05-24T13:31:41.122Z,99584.28
2023-05-24T13:34:10.703Z,99593.03
2023-05-24T13:36:38.566Z,99588.69
2023-05-24T13:39:15.707Z,99591.25
2023-05-24T13:41:44.753Z,99589.84
2023-05-24T13:44:13.300Z,99581.56
2023-05-24T13:46:40.971Z,99581.03
2023-05-24T13:49:09.402Z,99568.84
2023-05-24T13:51:37.014Z,99579.16
2023-05-24T13:54:06.991Z,99574.84
2023-05-24T13:56:35.008Z,99571.34
2023-05-24T13:59:03.398Z,99573.75
2023-05-24T14:01:31.332Z,99568.75
2023-05-24T14:04:02.510Z,99562.56
2023-05-24T14:06:30.888Z,99572.31
2023-05-24T14:08:58.709Z,99570.66
2023-05-24T14:11:27.697Z,99567.75
2023-05-24T14:14:43.651Z,99568.78
2023-05-24T14:16:43.298Z,99570.91
2023-05-24T14:19:10.958Z,99570.94
2023-05-24T14:21:38.368Z,99572.09
2023-05-24T14:24:06.034Z,99567.25
2023-05-24T14:26:33.413Z,99565.13
2023-05-24T14:29:01.651Z,99580.50
2023-05-24T14:31:29.426Z,99569.16
2023-05-24T14:33:56.962Z,99565.50
2023-05-24T14:36:24.558Z,99573.56
2023-05-24T14:38:52.312Z,99576.41
2023-05-24T14:41:19.738Z,99571.06
2023-05-24T14:43:47.194Z,99573.16
2023-05-24T14:46:14.927Z,99575.22
2023-05-24T14:48:42.372Z,99580.16
2023-05-24T14:51:09.803Z,99587.75
2023-05-24T14:53:37.488Z,99581.75
2023-05-24T14:56:06.350Z,99586.81
2023-05-24T14:58:33.779Z,99581.25
2023-05-24T15:01:02.083Z,99578.53
2023-05-24T15:03:29.694Z,99590.81
2023-05-24T15:05:57.424Z,99588.25
2023-05-24T15:08:25.121Z,99585.03
2023-05-24T15:10:52.573Z,99586.19
2023-05-24T15:13:20.330Z,99590.41
2023-05-24T15:15:48.442Z,99595.69
2023-05-24T15:18:15.850Z,99588.31
2023-05-24T15:20:43.635Z,99592.97
2023-05-24T15:23:11.627Z,99602.00
2023-05-24T15:25:39.004Z,99594.25
2023-05-24T15:28:06.551Z,99591.41
2023-05-24T15:30:34.242Z,99592.94
2023-05-24T15:33:01.661Z,99590.91
2023-05-24T15:35:29.070Z,99594.97
2023-05-24T15:37:56.694Z,99592.56
2023-05-24T15:40:24.818Z,99595.84
2023-05-24T15:42:52.940Z,99597.63
2023-05-24T15:45:21.244Z,99589.28
2023-05-24T15:47:48.771Z,99595.75
2023-05-24T15:50:16.557Z,99591.47
2023-05-24T15:52:44.228Z,99591.94
2023-05-24T15:55:11.973Z,99600.69
2023-05-24T15:57:39.403Z,99602.00
2023-05-24T16:00:07.535Z,99602.31
2023-05-24T16:02:39.579Z,99614.47
2023-05-24T16:05:07.548Z,99603.84
2023-05-24T16:07:34.941Z,99623.28
2023-05-24T16:10:02.358Z,99625.81
2023-05-24T16:12:30.587Z,99624.03
2023-05-24T16:14:59.575Z,99629.28
2023-05-24T16:17:27.063Z,99616.44
2023-05-24T16:19:54.922Z,99611.69
2023-05-24T16:22:22.487Z,99622.22
2023-05-24T16:24:49.889Z,99614.03
2023-05-24T16:27:17.588Z,99626.59
2023-05-24T16:29:46.835Z,99629.06
2023-05-24T16:32:14.383Z,99619.19
2023-05-24T16:34:56.208Z,99627.50
2023-05-24T16:37:24.360Z,99623.72
2023-05-24T16:39:52.019Z,99624.62
2023-05-24T16:42:19.558Z,99642.06
2023-05-24T16:44:47.070Z,99640.13
2023-05-24T16:47:14.806Z,99641.63
2023-05-24T16:49:42.207Z,99639.69
2023-05-24T16:52:09.627Z,99637.72
2023-05-24T16:54:37.305Z,99650.91
2023-05-24T16:57:04.696Z,99652.66
2023-05-24T16:59:32.172Z,99647.53
2023-05-24T17:01:59.888Z,99662.69
2023-05-24T17:04:27.324Z,99652.97
2023-05-24T17:06:54.708Z,99656.28
2023-05-24T17:09:22.383Z,99660.41
2023-05-24T17:11:51.021Z,99665.81
2023-05-24T17:14:18.575Z,99669.84
2023-05-24T17:16:46.321Z,99669.12
2023-05-24T17:19:14.050Z,99670.72
2023-05-24T17:21:42.104Z,99668.28
2023-05-24T17:24:09.768Z,99680.44
2023-05-24T17:26:39.008Z,99683.09
2023-05-24T17:29:06.565Z,99687.13
2023-05-24T17:31:34.289Z,99689.56
2023-05-24T17:34:02.086Z,99687.28
2023-05-24T17:36:33.328Z,99687.38
2023-05-24T17:39:00.981Z,99688.69
2023-05-24T17:41:28.363Z,99696.44
2023-05-24T17:43:55.833Z,99699.59
2023-05-24T17:46:23.659Z,99701.09
2023-05-24T17:48:51.945Z,99703.63
2023-05-24T17:51:19.635Z,99703.25
2023-05-24T17:53:47.409Z,99704.94
2023-05-24T17:56:14.979Z,99701.31
2023-05-24T17:58:42.461Z,99698.69
2023-05-24T18:01:11.466Z,99705.09
2023-05-24T18:03:40.720Z,99714.03
2023-05-24T18:06:08.553Z,99713.94
2023-05-24T18:08:38.183Z,99722.78
2023-05-24T18:11:09.418Z,99720.53
2023-05-24T18:13:41.696Z,99730.84
2023-05-24T18:16:10.300Z,99739.66
2023-05-24T18:18:37.871Z,99742.25
2023-05-24T18:21:05.553Z,99749.31
2023-05-24T18:23:37.307Z,99750.94
2023-05-24T18:26:08.410Z,99763.94
2023-05-24T18:28:37.432Z,99760.25
2023-05-24T18:31:08.298Z,99765.53
2023-05-24T18:33:36.780Z,99768.44
2023-05-24T18:36:05.451Z,99764.91
2023-05-24T18:38:33.802Z,99769.72
2023-05-24T18:41:04.166Z,99760.97
2023-05-24T18:43:33.238Z,99755.50
2023-05-24T18:46:01.275Z,99769.25
2023-05-24T18:48:28.651Z,99772.66
2023-05-24T18:50:56.254Z,99772.75
2023-05-24T18:53:23.987Z,99773.94
2023-05-24T18:55:51.486Z,99775.69
2023-05-24T18:58:18.881Z,99781.31
2023-05-24T19:00:46.557Z,99781.41
2023-05-24T19:03:14.027Z,99789.72
2023-05-24T19:05:43.812Z,99791.53
2023-05-24T19:08:11.874Z,99786.44
2023-05-24T19:10:39.283Z,99788.37
2023-05-24T19:13:06.753Z,99782.34
2023-05-24T19:15:35.272Z,99806.38
2023-05-24T19:18:03.038Z,99789.66
2023-05-24T19:20:30.522Z,99801.81
2023-05-24T19:22:58.674Z,99796.66
2023-05-24T19:25:26.351Z,99797.22
2023-05-24T19:28:00.165Z,99802.37
2023-05-24T19:30:28.279Z,99801.63
2023-05-24T19:32:55.786Z,99800.12
2023-05-24T19:35:23.503Z,99803.69
2023-05-24T19:37:52.196Z,99795.84
2023-05-24T19:40:20.759Z,99805.22
2023-05-24T19:42:48.143Z,99806.06
2023-05-24T19:45:16.409Z,99816.03
2023-05-24T19:47:45.242Z,99815.66
2023-05-24T19:50:12.753Z,99820.94
2023-05-24T19:52:40.444Z,99815.69
2023-05-24T19:55:08.287Z,99818.28
2023-05-24T19:57:35.775Z,99814.12
2023-05-24T20:00:04.444Z,99812.16
2023-05-24T20:02:38.579Z,99801.50
2023-05-24T20:05:06.976Z,99810.16
2023-05-24T20:07:34.389Z,99814.12
2023-05-24T20:10:01.906Z,99811.94
2023-05-24T20:12:30.800Z,99802.91
2023-05-24T20:14:58.220Z,99811.37
2023-05-24T20:17:25.624Z,99819.59
2023-05-24T20:19:53.376Z,99808.53
2023-05-24T20:22:21.011Z,99805.34
2023-05-24T20:24:48.438Z,99804.06
2023-05-24T20:27:16.098Z,99805.34
2023-05-24T20:29:43.497Z,99794.69
2023-05-24T20:32:10.891Z,99809.31
2023-05-24T20:34:38.600Z,99807.06
2023-05-24T20:37:06.504Z,99798.66
2023-05-24T20:39:33.892Z,99806.38
2023-05-24T20:42:02.227Z,99814.91
2023-05-24T20:44:29.644Z,99818.25
2023-05-24T20:46:57.082Z,99814.28
2023-05-24T20:49:24.779Z,99828.94
2023-05-24T20:51:52.195Z,99809.31
2023-05-24T20:54:19.569Z,99824.88
2023-05-24T20:56:47.261Z,99823.06
2023-05-24T20:59:14.651Z,99826.41
2023-05-24T21:01:42.348Z,99827.00
2023-05-24T21:04:10.204Z,99825.41
2023-05-24T21:06:37.709Z,99826.81
2023-05-24T21:09:05.140Z,99829.72
2023-05-24T21:11:32.812Z,99825.31
2023-05-24T21:14:00.179Z,99825.81
2023-05-24T21:16:28.231Z,99826.09
2023-05-24T21:18:55.892Z,99835.25
2023-05-24T21:21:23.373Z,99837.47
2023-05-24T21:23:50.758Z,99832.53
2023-05-24T21:26:18.454Z,99833.13
2023-05-24T21:28:46.321Z,99832.75
2023-05-24T21:31:13.858Z,99831.72
2023-05-24T21:33:43.388Z,99836.78
2023-05-24T21:36:10.922Z,99839.75
2023-05-24T21:38:38.330Z,99836.75
2023-05-24T21:41:06.175Z,99838.41
2023-05-24T21:43:33.624Z,99839.69
2023-05-24T21:46:01.028Z,99845.97
2023-05-24T21:48:28.720Z,99845.09
2023-05-24T21:50:56.254Z,99848.13
2023-05-24T21:53:23.647Z,99849.69
2023-05-24T21:55:51.277Z,99849.44
2023-05-24T21:58:18.706Z,99849.25
2023-05-24T22:00:46.392Z,99852.06
2023-05-24T22:03:14.115Z,99860.53
2023-05-24T22:05:41.672Z,99857.59
2023-05-24T22:08:09.066Z,99860.97
2023-05-24T22:10:36.754Z,99862.72
2023-05-24T22:13:04.126Z,99875.22
2023-05-24T22:15:31.595Z,99862.25
2023-05-24T22:18:01.410Z,99866.69
2023-05-24T22:20:30.545Z,99871.44
2023-05-24T22:22:58.880Z,99874.75
2023-05-24T22:25:26.759Z,99877.34
2023-05-24T22:27:55.770Z,99879.59
2023-05-24T22:30:23.812Z,99878.03
2023-05-24T22:32:51.531Z,99872.34
2023-05-24T22:35:19.247Z,99874.75
2023-05-24T22:37:46.644Z,99889.53
2023-05-24T22:40:14.397Z,99884.47
2023-05-24T22:42:41.820Z,99880.06
2023-05-24T22:45:09.757Z,99895.03
2023-05-24T22:47:40.025Z,99885.91
2023-05-24T22:50:08.184Z,99890.53
2023-05-24T22:52:35.756Z,99892.53
2023-05-24T22:55:03.543Z,99888.59
2023-05-24T22:57:31.950Z,99886.06
2023-05-24T22:59:59.346Z,99886.06
2023-05-24T23:02:29.249Z,99887.13
2023-05-24T23:04:56.931Z,99878.87
2023-05-24T23:07:25.175Z,99891.47
2023-05-24T23:09:53.436Z,99886.78
2023-05-24T23:12:21.015Z,99888.53
2023-05-24T23:14:48.435Z,99898.41
2023-05-24T23:17:20.099Z,99894.47
2023-05-24T23:19:50.166Z,99898.38
2023-05-24T23:22:23.491Z,99904.84
2023-05-24T23:24:50.936Z,99907.03
2023-05-24T23:27:18.653Z,99905.62
2023-05-24T23:29:46.246Z,99907.97
2023-05-24T23:32:13.727Z,99902.00
2023-05-24T23:34:41.435Z,99899.56
2023-05-24T23:37:08.877Z,99917.72
2023-05-24T23:39:36.329Z,99905.72
2023-05-24T23:42:04.402Z,99907.84
2023-05-24T23:44:31.800Z,99917.56
2023-05-24T23:46:59.258Z,99919.53
2023-05-24T23:49:27.024Z,99918.97
2023-05-24T23:51:54.453Z,99921.53
2023-05-24T23:54:22.174Z,99920.97
2023-05-24T23:56:50.149Z,99921.31
2023-05-24T23:59:17.580Z,99921.25
